sensor_id;sensor_type;location;lat;lon;timestamp;P1;durP1;ratioP1;P2;durP2;ratioP2
54167;SDS011;40072;50.958;3.592;2022-12-10T00:01:15;113.05;;;46.42;;
54167;SDS011;40072;50.958;3.592;2022-12-10T00:03:43;124.53;;;49.63;;
54167;SDS011;40072;50.958;3.592;2022-12-10T00:06:13;110.40;;;46.17;;
54167;SDS011;40072;50.958;3.592;2022-12-10T00:08:40;125.95;;;48.63;;
54167;SDS011;40072;50.958;3.592;2022-12-10T00:11:07;116.80;;;46.92;;
54167;SDS011;40072;50.958;3.592;2022-12-10T00:13:34;119.25;;;46.38;;
54167;SDS011;40072;50.958;3.592;2022-12-10T00:16:01;118.40;;;49.60;;
54167;SDS011;40072;50.958;3.592;2022-12-10T00:18:32;134.07;;;49.72;;
54167;SDS011;40072;50.958;3.592;2022-12-10T00:20:58;118.43;;;49.25;;
54167;SDS011;40072;50.958;3.592;2022-12-10T00:23:28;120.03;;;47.13;;
54167;SDS011;40072;50.958;3.592;2022-12-10T00:26:01;116.90;;;47.80;;
54167;SDS011;40072;50.958;3.592;2022-12-10T00:28:31;117.57;;;47.42;;
54167;SDS011;40072;50.958;3.592;2022-12-10T00:31:02;124.30;;;48.35;;
54167;SDS011;40072;50.958;3.592;2022-12-10T00:33:31;127.47;;;48.13;;
54167;SDS011;40072;50.958;3.592;2022-12-10T00:36:01;121.82;;;50.13;;
54167;SDS011;40072;50.958;3.592;2022-12-10T00:38:31;123.25;;;48.03;;
54167;SDS011;40072;50.958;3.592;2022-12-10T00:40:57;130.93;;;48.85;;
54167;SDS011;40072;50.958;3.592;2022-12-10T00:43:23;119.32;;;46.88;;
54167;SDS011;40072;50.958;3.592;2022-12-10T00:45:48;115.55;;;47.15;;
54167;SDS011;40072;50.958;3.592;2022-12-10T00:48:14;120.72;;;47.33;;
54167;SDS011;40072;50.958;3.592;2022-12-10T00:50:40;114.65;;;46.53;;
54167;SDS011;40072;50.958;3.592;2022-12-10T00:53:05;117.20;;;48.67;;
54167;SDS011;40072;50.958;3.592;2022-12-10T00:55:31;113.85;;;46.63;;
54167;SDS011;40072;50.958;3.592;2022-12-10T00:57:57;125.80;;;47.55;;
54167;SDS011;40072;50.958;3.592;2022-12-10T01:00:22;134.20;;;51.25;;
54167;SDS011;40072;50.958;3.592;2022-12-10T01:02:49;128.48;;;50.13;;
54167;SDS011;40072;50.958;3.592;2022-12-10T01:05:15;130.38;;;50.03;;
54167;SDS011;40072;50.958;3.592;2022-12-10T01:07:41;202.80;;;39.30;;
54167;SDS011;40072;50.958;3.592;2022-12-10T01:10:06;204.88;;;42.75;;
54167;SDS011;40072;50.958;3.592;2022-12-10T01:12:32;159.30;;;49.67;;
54167;SDS011;40072;50.958;3.592;2022-12-10T01:14:58;200.65;;;44.08;;
54167;SDS011;40072;50.958;3.592;2022-12-10T01:17:24;225.35;;;49.20;;
54167;SDS011;40072;50.958;3.592;2022-12-10T01:19:50;199.20;;;48.25;;
54167;SDS011;40072;50.958;3.592;2022-12-10T01:22:15;238.60;;;46.58;;
54167;SDS011;40072;50.958;3.592;2022-12-10T01:24:41;263.13;;;50.33;;
54167;SDS011;40072;50.958;3.592;2022-12-10T01:27:07;210.30;;;44.92;;
54167;SDS011;40072;50.958;3.592;2022-12-10T01:29:32;190.52;;;42.58;;
54167;SDS011;40072;50.958;3.592;2022-12-10T01:31:58;199.30;;;46.67;;
54167;SDS011;40072;50.958;3.592;2022-12-10T01:34:24;190.45;;;48.50;;
54167;SDS011;40072;50.958;3.592;2022-12-10T01:36:51;245.98;;;45.20;;
54167;SDS011;40072;50.958;3.592;2022-12-10T01:39:19;142.93;;;45.92;;
54167;SDS011;40072;50.958;3.592;2022-12-10T01:41:47;118.22;;;43.83;;
54167;SDS011;40072;50.958;3.592;2022-12-10T01:46:45;167.90;;;46.35;;
54167;SDS011;40072;50.958;3.592;2022-12-10T01:49:13;192.00;;;44.08;;
54167;SDS011;40072;50.958;3.592;2022-12-10T01:51:41;170.47;;;43.70;;
54167;SDS011;40072;50.958;3.592;2022-12-10T01:54:10;143.10;;;44.00;;
54167;SDS011;40072;50.958;3.592;2022-12-10T01:56:41;136.57;;;45.60;;
54167;SDS011;40072;50.958;3.592;2022-12-10T01:59:09;117.05;;;44.97;;
54167;SDS011;40072;50.958;3.592;2022-12-10T02:13:17;209.65;;;44.72;;
54167;SDS011;40072;50.958;3.592;2022-12-10T02:15:48;264.08;;;45.40;;
54167;SDS011;40072;50.958;3.592;2022-12-10T02:18:25;405.15;;;49.90;;
54167;SDS011;40072;50.958;3.592;2022-12-10T02:20:56;278.88;;;44.50;;
54167;SDS011;40072;50.958;3.592;2022-12-10T02:23:31;200.90;;;41.50;;
54167;SDS011;40072;50.958;3.592;2022-12-10T02:31:40;225.70;;;43.50;;
54167;SDS011;40072;50.958;3.592;2022-12-10T02:34:09;312.23;;;50.47;;
54167;SDS011;40072;50.958;3.592;2022-12-10T02:36:38;206.83;;;41.93;;
54167;SDS011;40072;50.958;3.592;2022-12-10T02:39:08;165.50;;;42.70;;
54167;SDS011;40072;50.958;3.592;2022-12-10T02:41:38;234.80;;;46.10;;
54167;SDS011;40072;50.958;3.592;2022-12-10T02:44:07;174.45;;;43.50;;
54167;SDS011;40072;50.958;3.592;2022-12-10T02:46:36;338.95;;;50.40;;
54167;SDS011;40072;50.958;3.592;2022-12-10T02:49:04;286.30;;;47.40;;
54167;SDS011;40072;50.958;3.592;2022-12-10T02:51:32;339.05;;;48.55;;
54167;SDS011;40072;50.958;3.592;2022-12-10T02:53:59;314.15;;;48.42;;
54167;SDS011;40072;50.958;3.592;2022-12-10T02:56:33;183.23;;;45.90;;
54167;SDS011;40072;50.958;3.592;2022-12-10T03:07:47;179.90;;;42.97;;
54167;SDS011;40072;50.958;3.592;2022-12-10T03:10:33;295.45;;;47.15;;
54167;SDS011;40072;50.958;3.592;2022-12-10T03:13:06;331.50;;;50.03;;
54167;SDS011;40072;50.958;3.592;2022-12-10T03:15:35;257.15;;;45.70;;
54167;SDS011;40072;50.958;3.592;2022-12-10T03:18:05;250.75;;;46.67;;
54167;SDS011;40072;50.958;3.592;2022-12-10T03:20:33;194.32;;;42.63;;
54167;SDS011;40072;50.958;3.592;2022-12-10T03:23:02;282.25;;;45.42;;
54167;SDS011;40072;50.958;3.592;2022-12-10T03:25:30;226.55;;;43.92;;
54167;SDS011;40072;50.958;3.592;2022-12-10T03:27:58;354.75;;;45.33;;
54167;SDS011;40072;50.958;3.592;2022-12-10T03:30:25;334.60;;;48.22;;
54167;SDS011;40072;50.958;3.592;2022-12-10T03:32:52;280.35;;;45.28;;
54167;SDS011;40072;50.958;3.592;2022-12-10T03:35:19;278.58;;;45.45;;
54167;SDS011;40072;50.958;3.592;2022-12-10T03:37:47;324.05;;;50.15;;
54167;SDS011;40072;50.958;3.592;2022-12-10T03:40:14;185.70;;;44.63;;
54167;SDS011;40072;50.958;3.592;2022-12-10T03:42:42;289.42;;;46.17;;
54167;SDS011;40072;50.958;3.592;2022-12-10T03:45:09;287.80;;;47.03;;
54167;SDS011;40072;50.958;3.592;2022-12-10T03:47:34;246.00;;;44.88;;
54167;SDS011;40072;50.958;3.592;2022-12-10T03:50:00;263.08;;;47.28;;
54167;SDS011;40072;50.958;3.592;2022-12-10T03:52:26;275.73;;;46.95;;
54167;SDS011;40072;50.958;3.592;2022-12-10T03:54:52;301.55;;;46.45;;
54167;SDS011;40072;50.958;3.592;2022-12-10T03:57:17;169.07;;;39.30;;
54167;SDS011;40072;50.958;3.592;2022-12-10T03:59:43;298.73;;;45.67;;
54167;SDS011;40072;50.958;3.592;2022-12-10T04:02:09;256.92;;;44.22;;
54167;SDS011;40072;50.958;3.592;2022-12-10T04:04:35;227.45;;;44.95;;
54167;SDS011;40072;50.958;3.592;2022-12-10T04:07:01;210.88;;;43.38;;
54167;SDS011;40072;50.958;3.592;2022-12-10T04:09:27;217.93;;;44.28;;
54167;SDS011;40072;50.958;3.592;2022-12-10T04:11:59;230.10;;;44.38;;
54167;SDS011;40072;50.958;3.592;2022-12-10T04:14:26;350.42;;;48.75;;
54167;SDS011;40072;50.958;3.592;2022-12-10T04:17:10;193.85;;;41.97;;
54167;SDS011;40072;50.958;3.592;2022-12-10T04:19:37;261.83;;;46.67;;
54167;SDS011;40072;50.958;3.592;2022-12-10T04:22:03;297.98;;;46.17;;
54167;SDS011;40072;50.958;3.592;2022-12-10T04:24:54;267.10;;;47.47;;
54167;SDS011;40072;50.958;3.592;2022-12-10T04:27:38;209.98;;;42.95;;
54167;SDS011;40072;50.958;3.592;2022-12-10T04:30:05;179.45;;;39.72;;
54167;SDS011;40072;50.958;3.592;2022-12-10T04:32:33;224.65;;;39.72;;
54167;SDS011;40072;50.958;3.592;2022-12-10T04:34:58;224.75;;;40.67;;
54167;SDS011;40072;50.958;3.592;2022-12-10T04:37:24;174.77;;;38.30;;
54167;SDS011;40072;50.958;3.592;2022-12-10T04:39:51;219.98;;;43.22;;
54167;SDS011;40072;50.958;3.592;2022-12-10T04:42:17;237.65;;;40.88;;
54167;SDS011;40072;50.958;3.592;2022-12-10T04:44:44;236.80;;;44.80;;
54167;SDS011;40072;50.958;3.592;2022-12-10T04:47:10;260.13;;;44.97;;
54167;SDS011;40072;50.958;3.592;2022-12-10T04:49:37;176.85;;;41.80;;
54167;SDS011;40072;50.958;3.592;2022-12-10T04:52:03;177.23;;;37.05;;
54167;SDS011;40072;50.958;3.592;2022-12-10T04:54:29;346.30;;;45.40;;
54167;SDS011;40072;50.958;3.592;2022-12-10T04:56:55;352.77;;;42.85;;
54167;SDS011;40072;50.958;3.592;2022-12-10T04:59:21;218.27;;;40.33;;
54167;SDS011;40072;50.958;3.592;2022-12-10T05:01:46;256.77;;;42.58;;
54167;SDS011;40072;50.958;3.592;2022-12-10T05:04:14;269.75;;;43.63;;
54167;SDS011;40072;50.958;3.592;2022-12-10T05:06:41;446.88;;;43.67;;
54167;SDS011;40072;50.958;3.592;2022-12-10T05:09:07;206.27;;;37.15;;
54167;SDS011;40072;50.958;3.592;2022-12-10T05:11:34;185.77;;;38.28;;
54167;SDS011;40072;50.958;3.592;2022-12-10T05:14:00;226.10;;;40.33;;
54167;SDS011;40072;50.958;3.592;2022-12-10T05:16:27;260.75;;;41.08;;
54167;SDS011;40072;50.958;3.592;2022-12-10T05:18:55;253.15;;;39.28;;
54167;SDS011;40072;50.958;3.592;2022-12-10T05:21:21;242.35;;;42.35;;
54167;SDS011;40072;50.958;3.592;2022-12-10T05:23:49;308.05;;;46.72;;
54167;SDS011;40072;50.958;3.592;2022-12-10T05:26:17;223.50;;;43.03;;
54167;SDS011;40072;50.958;3.592;2022-12-10T05:28:52;338.05;;;43.90;;
54167;SDS011;40072;50.958;3.592;2022-12-10T05:31:24;302.55;;;42.47;;
54167;SDS011;40072;50.958;3.592;2022-12-10T05:33:52;333.58;;;47.15;;
54167;SDS011;40072;50.958;3.592;2022-12-10T05:36:19;195.77;;;37.60;;
54167;SDS011;40072;50.958;3.592;2022-12-10T05:38:47;270.17;;;39.80;;
54167;SDS011;40072;50.958;3.592;2022-12-10T05:41:18;203.40;;;36.33;;
54167;SDS011;40072;50.958;3.592;2022-12-10T05:43:45;210.98;;;40.33;;
54167;SDS011;40072;50.958;3.592;2022-12-10T05:46:12;216.43;;;40.72;;
54167;SDS011;40072;50.958;3.592;2022-12-10T05:48:40;220.37;;;35.97;;
54167;SDS011;40072;50.958;3.592;2022-12-10T05:51:14;205.15;;;35.97;;
54167;SDS011;40072;50.958;3.592;2022-12-10T05:53:41;250.05;;;44.85;;
54167;SDS011;40072;50.958;3.592;2022-12-10T05:56:08;401.25;;;49.58;;
54167;SDS011;40072;50.958;3.592;2022-12-10T05:58:36;319.10;;;44.47;;
54167;SDS011;40072;50.958;3.592;2022-12-10T06:01:06;252.43;;;41.35;;
54167;SDS011;40072;50.958;3.592;2022-12-10T06:03:37;176.88;;;37.90;;
54167;SDS011;40072;50.958;3.592;2022-12-10T06:06:03;151.95;;;34.67;;
54167;SDS011;40072;50.958;3.592;2022-12-10T06:08:29;173.23;;;36.88;;
54167;SDS011;40072;50.958;3.592;2022-12-10T06:10:55;306.17;;;42.45;;
54167;SDS011;40072;50.958;3.592;2022-12-10T06:13:23;304.40;;;44.13;;
54167;SDS011;40072;50.958;3.592;2022-12-10T06:15:49;349.15;;;48.13;;
54167;SDS011;40072;50.958;3.592;2022-12-10T06:18:15;234.23;;;42.85;;
54167;SDS011;40072;50.958;3.592;2022-12-10T06:20:40;257.23;;;42.22;;
54167;SDS011;40072;50.958;3.592;2022-12-10T06:23:06;388.02;;;49.83;;
54167;SDS011;40072;50.958;3.592;2022-12-10T06:25:32;272.77;;;42.15;;
54167;SDS011;40072;50.958;3.592;2022-12-10T06:27:58;219.75;;;39.10;;
54167;SDS011;40072;50.958;3.592;2022-12-10T06:30:24;238.75;;;44.13;;
54167;SDS011;40072;50.958;3.592;2022-12-10T06:32:49;238.98;;;39.80;;
54167;SDS011;40072;50.958;3.592;2022-12-10T06:35:15;228.10;;;39.67;;
54167;SDS011;40072;50.958;3.592;2022-12-10T06:37:42;274.17;;;41.08;;
54167;SDS011;40072;50.958;3.592;2022-12-10T06:40:07;322.67;;;46.13;;
54167;SDS011;40072;50.958;3.592;2022-12-10T06:42:33;188.63;;;38.70;;
54167;SDS011;40072;50.958;3.592;2022-12-10T06:44:59;233.00;;;36.67;;
54167;SDS011;40072;50.958;3.592;2022-12-10T06:47:25;250.02;;;42.72;;
54167;SDS011;40072;50.958;3.592;2022-12-10T06:49:50;260.58;;;43.08;;
54167;SDS011;40072;50.958;3.592;2022-12-10T06:52:16;299.58;;;41.28;;
54167;SDS011;40072;50.958;3.592;2022-12-10T06:54:42;260.17;;;44.00;;
54167;SDS011;40072;50.958;3.592;2022-12-10T06:57:08;244.68;;;42.55;;
54167;SDS011;40072;50.958;3.592;2022-12-10T06:59:33;289.75;;;42.28;;
54167;SDS011;40072;50.958;3.592;2022-12-10T07:01:59;174.13;;;37.22;;
54167;SDS011;40072;50.958;3.592;2022-12-10T07:04:24;234.00;;;38.97;;
54167;SDS011;40072;50.958;3.592;2022-12-10T07:06:50;287.42;;;43.17;;
54167;SDS011;40072;50.958;3.592;2022-12-10T07:09:16;271.73;;;42.65;;
54167;SDS011;40072;50.958;3.592;2022-12-10T07:11:42;269.80;;;43.20;;
54167;SDS011;40072;50.958;3.592;2022-12-10T07:14:09;212.40;;;39.97;;
54167;SDS011;40072;50.958;3.592;2022-12-10T07:16:39;121.47;;;33.67;;
54167;SDS011;40072;50.958;3.592;2022-12-10T07:19:05;249.38;;;43.15;;
54167;SDS011;40072;50.958;3.592;2022-12-10T07:21:31;314.20;;;45.35;;
54167;SDS011;40072;50.958;3.592;2022-12-10T07:24:03;350.77;;;47.17;;
54167;SDS011;40072;50.958;3.592;2022-12-10T07:26:31;230.20;;;45.13;;
54167;SDS011;40072;50.958;3.592;2022-12-10T07:28:58;134.00;;;37.58;;
54167;SDS011;40072;50.958;3.592;2022-12-10T07:31:24;180.63;;;38.25;;
54167;SDS011;40072;50.958;3.592;2022-12-10T07:33:51;249.77;;;46.78;;
54167;SDS011;40072;50.958;3.592;2022-12-10T07:36:19;141.13;;;37.70;;
54167;SDS011;40072;50.958;3.592;2022-12-10T07:38:47;145.15;;;39.88;;
54167;SDS011;40072;50.958;3.592;2022-12-10T07:41:13;174.98;;;40.78;;
54167;SDS011;40072;50.958;3.592;2022-12-10T07:43:40;170.00;;;39.75;;
54167;SDS011;40072;50.958;3.592;2022-12-10T07:46:11;152.40;;;38.25;;
54167;SDS011;40072;50.958;3.592;2022-12-10T07:48:42;137.52;;;38.92;;
54167;SDS011;40072;50.958;3.592;2022-12-10T07:51:09;169.02;;;44.08;;
54167;SDS011;40072;50.958;3.592;2022-12-10T07:53:35;168.98;;;44.55;;
54167;SDS011;40072;50.958;3.592;2022-12-10T07:56:01;135.20;;;41.58;;
54167;SDS011;40072;50.958;3.592;2022-12-10T07:58:28;173.88;;;43.38;;
54167;SDS011;40072;50.958;3.592;2022-12-10T08:00:54;203.80;;;43.55;;
54167;SDS011;40072;50.958;3.592;2022-12-10T08:03:19;145.50;;;41.30;;
54167;SDS011;40072;50.958;3.592;2022-12-10T08:05:45;180.90;;;45.35;;
54167;SDS011;40072;50.958;3.592;2022-12-10T08:08:10;181.88;;;42.70;;
54167;SDS011;40072;50.958;3.592;2022-12-10T08:10:36;117.45;;;35.80;;
54167;SDS011;40072;50.958;3.592;2022-12-10T08:13:04;145.98;;;39.78;;
54167;SDS011;40072;50.958;3.592;2022-12-10T08:15:31;165.45;;;39.47;;
54167;SDS011;40072;50.958;3.592;2022-12-10T08:17:57;126.20;;;37.30;;
54167;SDS011;40072;50.958;3.592;2022-12-10T08:20:23;151.43;;;39.03;;
54167;SDS011;40072;50.958;3.592;2022-12-10T08:22:49;169.15;;;40.75;;
54167;SDS011;40072;50.958;3.592;2022-12-10T08:25:15;132.57;;;36.63;;
54167;SDS011;40072;50.958;3.592;2022-12-10T08:27:41;173.05;;;41.13;;
54167;SDS011;40072;50.958;3.592;2022-12-10T08:30:07;146.60;;;40.72;;
54167;SDS011;40072;50.958;3.592;2022-12-10T08:32:33;169.20;;;40.20;;
54167;SDS011;40072;50.958;3.592;2022-12-10T08:34:58;210.13;;;43.03;;
54167;SDS011;40072;50.958;3.592;2022-12-10T08:37:24;134.82;;;38.08;;
54167;SDS011;40072;50.958;3.592;2022-12-10T08:39:50;129.13;;;38.97;;
54167;SDS011;40072;50.958;3.592;2022-12-10T08:42:15;110.22;;;35.42;;
54167;SDS011;40072;50.958;3.592;2022-12-10T08:44:41;167.25;;;38.30;;
54167;SDS011;40072;50.958;3.592;2022-12-10T08:47:07;142.82;;;42.63;;
54167;SDS011;40072;50.958;3.592;2022-12-10T08:49:32;140.98;;;38.25;;
54167;SDS011;40072;50.958;3.592;2022-12-10T08:51:58;149.90;;;37.90;;
54167;SDS011;40072;50.958;3.592;2022-12-10T08:54:24;152.63;;;39.10;;
54167;SDS011;40072;50.958;3.592;2022-12-10T08:56:50;153.05;;;36.65;;
54167;SDS011;40072;50.958;3.592;2022-12-10T08:59:15;131.27;;;33.55;;
54167;SDS011;40072;50.958;3.592;2022-12-10T09:01:41;119.95;;;33.20;;
54167;SDS011;40072;50.958;3.592;2022-12-10T09:04:07;118.35;;;33.65;;
54167;SDS011;40072;50.958;3.592;2022-12-10T09:06:33;134.25;;;35.65;;
54167;SDS011;40072;50.958;3.592;2022-12-10T09:08:58;145.07;;;34.55;;
54167;SDS011;40072;50.958;3.592;2022-12-10T09:11:29;107.93;;;32.55;;
54167;SDS011;40072;50.958;3.592;2022-12-10T09:13:57;103.75;;;34.33;;
54167;SDS011;40072;50.958;3.592;2022-12-10T09:16:29;102.50;;;33.92;;
54167;SDS011;40072;50.958;3.592;2022-12-10T09:18:57;102.63;;;33.55;;
54167;SDS011;40072;50.958;3.592;2022-12-10T09:21:24;126.35;;;32.58;;
54167;SDS011;40072;50.958;3.592;2022-12-10T09:23:50;84.63;;;31.27;;
54167;SDS011;40072;50.958;3.592;2022-12-10T09:26:19;95.78;;;30.75;;
54167;SDS011;40072;50.958;3.592;2022-12-10T09:28:45;87.05;;;29.27;;
54167;SDS011;40072;50.958;3.592;2022-12-10T09:31:12;101.85;;;33.13;;
54167;SDS011;40072;50.958;3.592;2022-12-10T09:33:41;113.13;;;34.33;;
54167;SDS011;40072;50.958;3.592;2022-12-10T09:36:08;100.00;;;34.05;;
54167;SDS011;40072;50.958;3.592;2022-12-10T09:38:36;93.13;;;32.08;;
54167;SDS011;40072;50.958;3.592;2022-12-10T09:46:55;87.43;;;33.30;;
54167;SDS011;40072;50.958;3.592;2022-12-10T09:49:25;101.40;;;33.80;;
54167;SDS011;40072;50.958;3.592;2022-12-10T09:51:54;86.90;;;32.13;;
54167;SDS011;40072;50.958;3.592;2022-12-10T09:54:25;77.10;;;29.15;;
54167;SDS011;40072;50.958;3.592;2022-12-10T09:56:55;91.25;;;31.08;;
54167;SDS011;40072;50.958;3.592;2022-12-10T09:59:24;85.10;;;29.10;;
54167;SDS011;40072;50.958;3.592;2022-12-10T10:04:55;76.07;;;28.42;;
54167;SDS011;40072;50.958;3.592;2022-12-10T10:07:31;74.05;;;27.85;;
54167;SDS011;40072;50.958;3.592;2022-12-10T10:12:29;68.40;;;26.90;;
54167;SDS011;40072;50.958;3.592;2022-12-10T10:14:57;73.55;;;26.88;;
54167;SDS011;40072;50.958;3.592;2022-12-10T10:17:31;63.60;;;24.92;;
54167;SDS011;40072;50.958;3.592;2022-12-10T10:20:01;55.20;;;23.80;;
54167;SDS011;40072;50.958;3.592;2022-12-10T10:22:27;61.65;;;24.77;;
54167;SDS011;40072;50.958;3.592;2022-12-10T10:24:53;57.67;;;24.30;;
54167;SDS011;40072;50.958;3.592;2022-12-10T10:27:26;73.57;;;25.73;;
54167;SDS011;40072;50.958;3.592;2022-12-10T10:29:55;68.22;;;26.02;;
54167;SDS011;40072;50.958;3.592;2022-12-10T10:32:23;64.90;;;26.25;;
54167;SDS011;40072;50.958;3.592;2022-12-10T10:38:23;52.85;;;22.77;;
54167;SDS011;40072;50.958;3.592;2022-12-10T10:40:59;57.35;;;22.33;;
54167;SDS011;40072;50.958;3.592;2022-12-10T10:43:28;61.70;;;23.88;;
54167;SDS011;40072;50.958;3.592;2022-12-10T10:45:58;63.40;;;24.67;;
54167;SDS011;40072;50.958;3.592;2022-12-10T10:48:27;61.85;;;24.08;;
54167;SDS011;40072;50.958;3.592;2022-12-10T10:53:47;57.17;;;24.77;;
54167;SDS011;40072;50.958;3.592;2022-12-10T10:56:31;58.53;;;24.15;;
54167;SDS011;40072;50.958;3.592;2022-12-10T11:04:38;49.25;;;23.40;;
54167;SDS011;40072;50.958;3.592;2022-12-10T11:07:23;52.78;;;23.20;;
54167;SDS011;40072;50.958;3.592;2022-12-10T11:09:57;51.22;;;22.77;;
54167;SDS011;40072;50.958;3.592;2022-12-10T11:12:34;53.88;;;24.10;;
54167;SDS011;40072;50.958;3.592;2022-12-10T11:14:59;52.17;;;22.50;;
54167;SDS011;40072;50.958;3.592;2022-12-10T11:17:26;51.22;;;24.27;;
54167;SDS011;40072;50.958;3.592;2022-12-10T11:19:57;54.97;;;23.83;;
54167;SDS011;40072;50.958;3.592;2022-12-10T11:22:48;50.03;;;22.08;;
54167;SDS011;40072;50.958;3.592;2022-12-10T11:25:15;38.58;;;19.50;;
54167;SDS011;40072;50.958;3.592;2022-12-10T11:27:55;43.95;;;20.13;;
54167;SDS011;40072;50.958;3.592;2022-12-10T11:30:39;41.88;;;19.30;;
54167;SDS011;40072;50.958;3.592;2022-12-10T11:33:34;40.25;;;19.70;;
54167;SDS011;40072;50.958;3.592;2022-12-10T11:44:46;45.85;;;21.55;;
54167;SDS011;40072;50.958;3.592;2022-12-10T11:47:35;46.35;;;22.25;;
54167;SDS011;40072;50.958;3.592;2022-12-10T12:17:04;51.30;;;25.77;;
54167;SDS011;40072;50.958;3.592;2022-12-10T12:20:13;49.08;;;25.50;;
54167;SDS011;40072;50.958;3.592;2022-12-10T12:23:04;60.42;;;27.40;;
54167;SDS011;40072;50.958;3.592;2022-12-10T12:25:47;71.63;;;27.00;;
54167;SDS011;40072;50.958;3.592;2022-12-10T12:31:01;61.15;;;26.05;;
54167;SDS011;40072;50.958;3.592;2022-12-10T12:36:16;55.40;;;25.98;;
54167;SDS011;40072;50.958;3.592;2022-12-10T12:38:53;50.80;;;24.08;;
54167;SDS011;40072;50.958;3.592;2022-12-10T12:44:14;55.17;;;24.40;;
54167;SDS011;40072;50.958;3.592;2022-12-10T12:46:48;47.90;;;23.60;;
54167;SDS011;40072;50.958;3.592;2022-12-10T12:52:00;48.72;;;23.05;;
54167;SDS011;40072;50.958;3.592;2022-12-10T12:54:38;44.13;;;22.73;;
54167;SDS011;40072;50.958;3.592;2022-12-10T13:05:02;50.92;;;22.70;;
54167;SDS011;40072;50.958;3.592;2022-12-10T13:07:33;49.35;;;22.90;;
54167;SDS011;40072;50.958;3.592;2022-12-10T13:15:17;42.50;;;22.20;;
54167;SDS011;40072;50.958;3.592;2022-12-10T13:20:40;43.10;;;22.48;;
54167;SDS011;40072;50.958;3.592;2022-12-10T13:28:26;35.25;;;22.08;;
54167;SDS011;40072;50.958;3.592;2022-12-10T13:33:48;31.95;;;18.00;;
54167;SDS011;40072;50.958;3.592;2022-12-10T13:39:12;45.63;;;23.33;;
54167;SDS011;40072;50.958;3.592;2022-12-10T13:44:58;38.45;;;23.23;;
54167;SDS011;40072;50.958;3.592;2022-12-10T13:50:00;41.65;;;23.75;;
54167;SDS011;40072;50.958;3.592;2022-12-10T13:55:32;37.95;;;23.67;;
54167;SDS011;40072;50.958;3.592;2022-12-10T13:58:22;40.05;;;23.70;;
54167;SDS011;40072;50.958;3.592;2022-12-10T14:03:59;35.80;;;21.40;;
54167;SDS011;40072;50.958;3.592;2022-12-10T14:06:25;40.13;;;23.20;;
54167;SDS011;40072;50.958;3.592;2022-12-10T14:09:02;36.72;;;21.20;;
54167;SDS011;40072;50.958;3.592;2022-12-10T14:11:32;40.28;;;22.77;;
54167;SDS011;40072;50.958;3.592;2022-12-10T14:14:02;40.60;;;23.88;;
54167;SDS011;40072;50.958;3.592;2022-12-10T14:16:31;42.00;;;24.50;;
54167;SDS011;40072;50.958;3.592;2022-12-10T14:19:03;39.55;;;22.75;;
54167;SDS011;40072;50.958;3.592;2022-12-10T14:21:35;35.33;;;22.05;;
54167;SDS011;40072;50.958;3.592;2022-12-10T14:24:04;38.13;;;23.63;;
54167;SDS011;40072;50.958;3.592;2022-12-10T14:26:35;40.17;;;22.33;;
54167;SDS011;40072;50.958;3.592;2022-12-10T14:31:44;36.03;;;21.77;;
54167;SDS011;40072;50.958;3.592;2022-12-10T14:34:14;34.42;;;21.77;;
54167;SDS011;40072;50.958;3.592;2022-12-10T14:36:47;35.20;;;21.98;;
54167;SDS011;40072;50.958;3.592;2022-12-10T14:39:19;39.78;;;20.90;;
54167;SDS011;40072;50.958;3.592;2022-12-10T14:41:50;36.10;;;22.33;;
54167;SDS011;40072;50.958;3.592;2022-12-10T14:44:18;36.60;;;22.60;;
54167;SDS011;40072;50.958;3.592;2022-12-10T14:46:46;30.35;;;19.90;;
54167;SDS011;40072;50.958;3.592;2022-12-10T14:49:47;34.17;;;20.95;;
54167;SDS011;40072;50.958;3.592;2022-12-10T14:52:14;32.53;;;22.15;;
54167;SDS011;40072;50.958;3.592;2022-12-10T14:54:44;32.55;;;21.33;;
54167;SDS011;40072;50.958;3.592;2022-12-10T14:57:15;37.08;;;22.15;;
54167;SDS011;40072;50.958;3.592;2022-12-10T14:59:46;35.30;;;22.75;;
54167;SDS011;40072;50.958;3.592;2022-12-10T15:02:30;36.13;;;22.17;;
54167;SDS011;40072;50.958;3.592;2022-12-10T15:05:27;34.95;;;22.10;;
54167;SDS011;40072;50.958;3.592;2022-12-10T15:08:00;35.92;;;20.70;;
54167;SDS011;40072;50.958;3.592;2022-12-10T15:10:32;36.72;;;24.08;;
54167;SDS011;40072;50.958;3.592;2022-12-10T15:13:03;36.88;;;22.23;;
54167;SDS011;40072;50.958;3.592;2022-12-10T15:15:31;35.53;;;22.75;;
54167;SDS011;40072;50.958;3.592;2022-12-10T15:18:14;44.22;;;24.10;;
54167;SDS011;40072;50.958;3.592;2022-12-10T15:25:58;45.55;;;23.98;;
54167;SDS011;40072;50.958;3.592;2022-12-10T15:28:34;41.00;;;24.38;;
54167;SDS011;40072;50.958;3.592;2022-12-10T15:31:18;44.42;;;26.10;;
54167;SDS011;40072;50.958;3.592;2022-12-10T15:33:47;46.50;;;25.20;;
54167;SDS011;40072;50.958;3.592;2022-12-10T15:36:16;52.20;;;24.40;;
54167;SDS011;40072;50.958;3.592;2022-12-10T15:38:56;44.63;;;24.75;;
54167;SDS011;40072;50.958;3.592;2022-12-10T15:41:44;39.58;;;23.73;;
54167;SDS011;40072;50.958;3.592;2022-12-10T15:46:52;36.55;;;22.85;;
54167;SDS011;40072;50.958;3.592;2022-12-10T15:49:33;37.78;;;21.30;;
54167;SDS011;40072;50.958;3.592;2022-12-10T15:51:59;38.35;;;22.77;;
54167;SDS011;40072;50.958;3.592;2022-12-10T15:56:58;39.83;;;25.02;;
54167;SDS011;40072;50.958;3.592;2022-12-10T15:59:24;42.05;;;25.38;;
54167;SDS011;40072;50.958;3.592;2022-12-10T16:01:50;42.08;;;23.73;;
54167;SDS011;40072;50.958;3.592;2022-12-10T16:04:16;41.65;;;24.95;;
54167;SDS011;40072;50.958;3.592;2022-12-10T16:06:41;40.75;;;24.55;;
54167;SDS011;40072;50.958;3.592;2022-12-10T16:09:08;44.53;;;26.58;;
54167;SDS011;40072;50.958;3.592;2022-12-10T16:11:34;47.97;;;26.88;;
54167;SDS011;40072;50.958;3.592;2022-12-10T16:14:00;46.47;;;27.20;;
54167;SDS011;40072;50.958;3.592;2022-12-10T16:16:27;42.42;;;27.73;;
54167;SDS011;40072;50.958;3.592;2022-12-10T16:18:53;50.58;;;27.33;;
54167;SDS011;40072;50.958;3.592;2022-12-10T16:21:18;56.10;;;32.95;;
54167;SDS011;40072;50.958;3.592;2022-12-10T16:23:44;48.00;;;30.38;;
54167;SDS011;40072;50.958;3.592;2022-12-10T16:28:47;46.92;;;27.80;;
54167;SDS011;40072;50.958;3.592;2022-12-10T16:31:15;43.63;;;28.17;;
54167;SDS011;40072;50.958;3.592;2022-12-10T16:33:43;45.90;;;27.75;;
54167;SDS011;40072;50.958;3.592;2022-12-10T16:36:09;48.55;;;26.92;;
54167;SDS011;40072;50.958;3.592;2022-12-10T16:38:36;47.10;;;30.35;;
54167;SDS011;40072;50.958;3.592;2022-12-10T16:41:02;45.38;;;29.42;;
54167;SDS011;40072;50.958;3.592;2022-12-10T16:43:32;43.28;;;28.80;;
54167;SDS011;40072;50.958;3.592;2022-12-10T16:45:57;43.00;;;28.00;;
54167;SDS011;40072;50.958;3.592;2022-12-10T16:48:23;44.25;;;28.38;;
54167;SDS011;40072;50.958;3.592;2022-12-10T16:50:50;43.90;;;28.45;;
54167;SDS011;40072;50.958;3.592;2022-12-10T16:53:18;45.53;;;27.80;;
54167;SDS011;40072;50.958;3.592;2022-12-10T16:55:50;43.60;;;26.13;;
54167;SDS011;40072;50.958;3.592;2022-12-10T16:58:15;43.33;;;25.50;;